»·PEaware :: SKW1187 KSFO-KSAN

SKW1187 :: KSFO-KSAN

FLIGHT INFORMATION

Flight Status: Arrived
Operator:
SkyWest Airlines
More flights by this operator :: More flights under this callsign
Pilot: Anonymous 12254 (12254)
Aircraft: CANADAIR CL-600 CRJ-200
(CRJ2)
More flights by this aircraft type
Origin: KSFO San Francisco Intl
United States
Destination: KSAN San Diego Intl-Lindbergh
United States
More flights between these airports :: More routes between these airports
Route: +OFFSH2 MCKEY LAX COMIX2
File this flight plan on PilotEdge
Remarks:
Altitude:
(Current/Filed)
31,000ft
Speed:
(Current/Filed)
430kts
Departed: 26-May-19 05:57 PM
Arrived: 26-May-19 07:18 PM
Distance/Time
Traveled:
388nm/1:21
Distance/Time
To Go:
Arrived

Flight Plot

Page will automatically refresh every two minutes.

Flight plan parsing failed; only flown route is shown


Map Options




Map Legend


Flown Route
Filed Route
Departure Airport
Arrival Airport
Navaid (VOR, NDB)
Fix

Horizontal Profiles

Position Reports

Time Latitude Longitude Heading Altitude Ground
Speed
26-May-19 17:24 37.616718 -122.380464 298 28ft 0kts
26-May-19 17:25 37.616717 -122.380464 298 28ft 0kts
26-May-19 17:26 37.616717 -122.380464 298 28ft 0kts
26-May-19 17:27 37.616717 -122.380464 298 28ft 0kts
26-May-19 17:28 37.616717 -122.380464 298 28ft 0kts
26-May-19 17:29 37.616717 -122.380464 298 28ft 0kts
26-May-19 17:30 37.616717 -122.380464 298 28ft 0kts
26-May-19 17:31 37.616717 -122.380464 298 28ft 0kts
26-May-19 17:32 37.616717 -122.380464 298 28ft 0kts
26-May-19 17:33 37.616717 -122.380464 298 28ft 0kts
26-May-19 17:34 37.616717 -122.380464 298 28ft 0kts
26-May-19 17:35 37.616717 -122.380464 298 28ft 0kts
26-May-19 17:36 37.616717 -122.380464 298 28ft 0kts
26-May-19 17:37 37.616717 -122.380464 298 28ft 0kts
26-May-19 17:38 37.616717 -122.380464 298 28ft 0kts
26-May-19 17:39 37.616717 -122.380464 298 28ft 0kts
26-May-19 17:40 37.616717 -122.380464 298 28ft 0kts
26-May-19 17:41 37.616717 -122.380464 298 28ft 0kts
26-May-19 17:42 37.616717 -122.380464 298 28ft 0kts
26-May-19 17:43 37.616717 -122.380464 298 28ft 0kts
26-May-19 17:44 37.616702 -122.380429 298 28ft 0kts
26-May-19 17:45 37.616702 -122.380429 298 28ft 0kts
26-May-19 17:46 37.616702 -122.380429 298 28ft 0kts
26-May-19 17:47 37.616702 -122.380429 298 28ft 0kts
26-May-19 17:48 37.616702 -122.380429 298 28ft 0kts
26-May-19 17:49 37.616702 -122.380429 298 28ft 0kts
26-May-19 17:50 37.616605 -122.379667 211 27ft 0kts
26-May-19 17:51 37.615915 -122.380135 207 28ft 12kts
26-May-19 17:52 37.612710 -122.382224 207 28ft 16kts
26-May-19 17:53 37.609963 -122.384067 191 28ft 0kts
26-May-19 17:54 37.609601 -122.383925 129 28ft 0kts
26-May-19 17:55 37.609318 -122.383277 116 28ft 3kts
26-May-19 17:56 37.617933 -122.376267 27 20ft 148kts
26-May-19 17:57 37.668762 -122.364620 2 2217ft 207kts
26-May-19 17:58 37.709026 -122.404603 255 5354ft 229kts
26-May-19 17:59 37.673595 -122.473553 235 8430ft 240kts
26-May-19 18:00 37.635689 -122.545077 236 11478ft 241kts
26-May-19 18:01 37.599208 -122.614148 236 14473ft 221kts
26-May-19 18:02 37.565725 -122.677487 236 16875ft 229kts
26-May-19 18:03 37.513506 -122.729090 170 19703ft 274kts
26-May-19 18:04 37.432821 -122.696408 166 22413ft 334kts
26-May-19 18:05 37.324276 -122.666824 167 24154ft 443kts
26-May-19 18:06 37.194565 -122.632698 167 27152ft 461kts
26-May-19 18:07 37.073909 -122.601087 167 29611ft 417kts
26-May-19 18:08 36.964498 -122.572511 167 30940ft 388kts
26-May-19 18:09 36.858661 -122.544958 167 30947ft 389kts
26-May-19 18:10 36.750577 -122.516901 167 30947ft 398kts
26-May-19 18:11 36.640575 -122.488427 167 30947ft 407kts
26-May-19 18:12 36.527908 -122.459264 168 30946ft 415kts
26-May-19 18:13 36.417589 -122.416906 139 30955ft 421kts
26-May-19 18:14 36.337967 -122.308599 130 30946ft 428kts
26-May-19 18:15 36.259879 -122.194953 130 30946ft 435kts
26-May-19 18:16 36.180749 -122.080012 130 30946ft 440kts
26-May-19 18:17 36.100610 -121.963998 130 30946ft 446kts
26-May-19 18:18 36.019885 -121.847538 130 30944ft 441kts
26-May-19 18:19 35.940390 -121.733242 130 30944ft 435kts
26-May-19 18:20 35.861672 -121.620447 130 30944ft 431kts
26-May-19 18:21 35.783608 -121.508957 130 30944ft 426kts
26-May-19 18:22 35.706018 -121.398504 130 30944ft 423kts
26-May-19 18:23 35.629184 -121.289478 131 30944ft 419kts
26-May-19 18:24 35.553016 -121.181741 131 30944ft 417kts
26-May-19 18:25 35.478193 -121.073584 124 30945ft 414kts
26-May-19 18:26 35.412294 -120.957581 124 30944ft 412kts
26-May-19 18:27 35.347295 -120.842751 124 30944ft 410kts
26-May-19 18:28 35.282071 -120.727879 124 30944ft 408kts
26-May-19 18:29 35.217390 -120.614333 124 30944ft 406kts
26-May-19 18:30 35.152643 -120.501037 124 30944ft 405kts
26-May-19 18:31 35.088003 -120.388290 124 30944ft 403kts
26-May-19 18:32 35.023379 -120.275939 125 30944ft 402kts
26-May-19 18:33 34.959052 -120.164452 125 30944ft 401kts
26-May-19 18:34 34.894936 -120.053678 125 30944ft 400kts
26-May-19 18:35 34.830658 -119.942973 125 30944ft 400kts
26-May-19 18:36 34.766223 -119.832343 125 30945ft 399kts
26-May-19 18:37 34.701746 -119.721984 125 30945ft 398kts
26-May-19 18:38 34.637263 -119.611956 125 30945ft 398kts
26-May-19 18:39 34.572748 -119.502212 125 30945ft 397kts
26-May-19 18:40 34.508292 -119.392906 125 30945ft 398kts
26-May-19 18:41 34.442975 -119.282478 125 30946ft 406kts
26-May-19 18:42 34.376305 -119.170113 125 30946ft 413kts
26-May-19 18:43 34.308403 -119.056033 125 30946ft 420kts
26-May-19 18:44 34.239397 -118.940466 125 30946ft 426kts
26-May-19 18:45 34.169345 -118.823527 125 30946ft 431kts
26-May-19 18:46 34.097882 -118.704622 125 30415ft 439kts
26-May-19 18:47 34.026858 -118.586833 125 28644ft 424kts
26-May-19 18:48 33.958623 -118.474028 125 27125ft 407kts
26-May-19 18:49 33.886470 -118.371625 132 25490ft 396kts
26-May-19 18:50 33.812492 -118.275793 133 23560ft 392kts
26-May-19 18:51 33.739777 -118.180994 132 22042ft 377kts
26-May-19 18:52 33.670693 -118.090322 132 21014ft 355kts
26-May-19 18:53 33.605302 -118.004694 132 19992ft 338kts
26-May-19 18:54 33.542000 -117.923621 135 18978ft 326kts
26-May-19 18:55 33.477679 -117.848647 135 17967ft 317kts
26-May-19 18:56 33.413638 -117.776961 137 16959ft 311kts
26-May-19 18:57 33.349512 -117.708328 138 15955ft 307kts
26-May-19 18:58 33.285703 -117.640261 138 14964ft 303kts
26-May-19 18:59 33.226046 -117.577026 138 14918ft 268kts
26-May-19 19:00 33.169167 -117.517145 138 13737ft 282kts
26-May-19 19:01 33.105847 -117.457683 144 12261ft 296kts
26-May-19 19:02 33.041705 -117.403949 144 11778ft 262kts
26-May-19 19:03 32.980894 -117.352941 144 10518ft 271kts
26-May-19 19:04 32.919617 -117.301626 145 9229ft 264kts
26-May-19 19:05 32.860238 -117.251987 145 8014ft 255kts
26-May-19 19:06 32.802489 -117.203789 145 6803ft 249kts
26-May-19 19:07 32.763628 -117.143512 76 5930ft 228kts
26-May-19 19:08 32.774124 -117.073642 94 5924ft 208kts
26-May-19 19:09 32.756186 -117.009628 112 5923ft 197kts
26-May-19 19:10 32.738001 -116.947434 106 5217ft 229kts
26-May-19 19:11 32.711744 -116.878515 158 4929ft 223kts
26-May-19 19:12 32.661649 -116.902026 252 4174ft 210kts
26-May-19 19:13 32.666238 -116.965890 299 3710ft 181kts
26-May-19 19:14 32.693637 -117.023090 286 2678ft 203kts
26-May-19 19:15 32.709234 -117.087764 286 1876ft 209kts
26-May-19 19:16 32.724735 -117.153804 285 802ft 191kts
26-May-19 19:18 32.735594 -117.198575 260 15ft 29kts

Navigation Log

Ident Type
Flight plan parsing failed, navigation log unavailable